This is the latest recevied weather packets stored in our database for station/object KA1BMF-13. If no packets are shown the sender has not sent any weather packets the latest 10 day(s).
| Time | Temp. | Humidity | Pressure | Rain* | Wind** | Luminosity | Snow |
|---|---|---|---|---|---|---|---|
| 1777255517 | 6.67° C | 78% | 1021.2 hPa | 0 mm | - | 0 W/m² | - |
| 1777254917 | 6.67° C | 80% | 1021.2 hPa | 0 mm | - | 0 W/m² | - |
| 1777254317 | 6.67° C | 81% | 1021.2 hPa | 0 mm | - | 0 W/m² | - |
| 1777248319 | 8.89° C | 75% | 1020.5 hPa | 0 mm | - | 0 W/m² | - |
| 1777243521 | 11.11° C | 65% | 1019.7 hPa | 0 mm | - | 28 W/m² | - |
| 1777227919 | 13.89° C | 57% | 1019.4 hPa | 0 mm | - | 796 W/m² | - |
| 1777224337 | 12.78° C | 60% | 1019.5 hPa | 0 mm | - | 927 W/m² | - |
| 1777221918 | 11.11° C | 62% | 1019.8 hPa | 0 mm | - | 509 W/m² | - |
| 1777218919 | 10° C | 70% | 1019.8 hPa | 0 mm | - | 493 W/m² | - |
| 1777216519 | 9.44° C | 73% | 1019.6 hPa | 0 mm | - | 411 W/m² | - |
| 1777215338 | 8.89° C | 78% | 1019.5 hPa | 0 mm | - | 468 W/m² | - |
| 1777212319 | 7.78° C | 88% | 1019.3 hPa | 0 mm | - | 345 W/m² | - |
| 1777208120 | 6.11° C | 97% | 1019 hPa | 0 mm | - | 154 W/m² | - |
| 1777196124 | 5° C | 97% | 1017.5 hPa | 0.51 mm | - | 0 W/m² | - |
| 1777195524 | 5° C | 97% | 1017.5 hPa | 0.51 mm | - | 0 W/m² | - |
| 1777190725 | 5° C | 97% | 1017.2 hPa | 2.29 mm | - | 0 W/m² | - |
| 1777187726 | 5° C | 97% | 1017.2 hPa | 0.25 mm | - | 0 W/m² | - |
| 1777187126 | 5° C | 97% | 1017.2 hPa | 0.25 mm | - | 0 W/m² | - |
| 1777184747 | 4.44° C | 96% | 1017.5 hPa | 3.81 mm | - | 0 W/m² | - |
| 1777184128 | 4.44° C | 96% | 1017.5 hPa | 5.33 mm | - | 0 W/m² | - |
| 1777182928 | 4.44° C | 96% | 1017.8 hPa | 5.84 mm | - | 0 W/m² | - |
| 1777180529 | 4.44° C | 96% | 1018 hPa | 6.86 mm | - | 0 W/m² | - |
| 1777177529 | 4.44° C | 95% | 1018.2 hPa | 9.4 mm | - | 0 W/m² | - |
| 1777175730 | 5° C | 95% | 1018.3 hPa | 12.7 mm | - | 0 W/m² | - |
| 1777167340 | 5° C | 94% | 1018.2 hPa | 4.57 mm | - | 0 W/m² | - |
* Rain latest hour (hover to see other rain measurements)
** Current wind speed in m/s (hover to see current wind gust speed)